sensor_id;sensor_type;location;lat;lon;timestamp;P1;durP1;ratioP1;P2;durP2;ratioP2
38302;SDS011;24103;42.454;27.400;2023-07-29T00:01:20;3.67;;;1.15;;
38302;SDS011;24103;42.454;27.400;2023-07-29T00:03:46;1.20;;;1.13;;
38302;SDS011;24103;42.454;27.400;2023-07-29T00:06:11;1.33;;;1.00;;
38302;SDS011;24103;42.454;27.400;2023-07-29T00:08:37;1.33;;;1.00;;
38302;SDS011;24103;42.454;27.400;2023-07-29T00:11:03;2.85;;;1.10;;
38302;SDS011;24103;42.454;27.400;2023-07-29T00:13:28;0.85;;;0.85;;
38302;SDS011;24103;42.454;27.400;2023-07-29T00:15:54;1.65;;;0.93;;
38302;SDS011;24103;42.454;27.400;2023-07-29T00:18:21;1.33;;;1.23;;
38302;SDS011;24103;42.454;27.400;2023-07-29T00:20:47;1.40;;;1.27;;
38302;SDS011;24103;42.454;27.400;2023-07-29T00:23:12;1.50;;;1.40;;
38302;SDS011;24103;42.454;27.400;2023-07-29T00:25:38;0.95;;;0.95;;
38302;SDS011;24103;42.454;27.400;2023-07-29T00:28:03;2.72;;;1.40;;
38302;SDS011;24103;42.454;27.400;2023-07-29T00:30:29;1.40;;;1.27;;
38302;SDS011;24103;42.454;27.400;2023-07-29T00:32:55;1.08;;;1.00;;
38302;SDS011;24103;42.454;27.400;2023-07-29T00:35:20;1.00;;;1.00;;
38302;SDS011;24103;42.454;27.400;2023-07-29T00:37:46;1.60;;;1.50;;
38302;SDS011;24103;42.454;27.400;2023-07-29T00:40:15;1.48;;;1.33;;
38302;SDS011;24103;42.454;27.400;2023-07-29T00:42:45;2.33;;;1.20;;
38302;SDS011;24103;42.454;27.400;2023-07-29T00:45:11;1.48;;;1.20;;
38302;SDS011;24103;42.454;27.400;2023-07-29T00:47:37;2.15;;;1.30;;
38302;SDS011;24103;42.454;27.400;2023-07-29T00:50:03;2.67;;;1.52;;
38302;SDS011;24103;42.454;27.400;2023-07-29T00:52:29;3.42;;;1.40;;
38302;SDS011;24103;42.454;27.400;2023-07-29T00:54:55;4.03;;;1.48;;
38302;SDS011;24103;42.454;27.400;2023-07-29T00:57:20;1.40;;;1.23;;
38302;SDS011;24103;42.454;27.400;2023-07-29T00:59:46;1.52;;;1.42;;
38302;SDS011;24103;42.454;27.400;2023-07-29T01:02:12;1.45;;;1.20;;
38302;SDS011;24103;42.454;27.400;2023-07-29T01:04:38;1.33;;;1.23;;
38302;SDS011;24103;42.454;27.400;2023-07-29T01:07:09;1.08;;;1.05;;
38302;SDS011;24103;42.454;27.400;2023-07-29T01:15:33;1.20;;;1.15;;
38302;SDS011;24103;42.454;27.400;2023-07-29T01:18:15;1.30;;;1.20;;
38302;SDS011;24103;42.454;27.400;2023-07-29T01:20:47;1.60;;;1.30;;
38302;SDS011;24103;42.454;27.400;2023-07-29T01:23:13;5.35;;;1.67;;
38302;SDS011;24103;42.454;27.400;2023-07-29T01:25:40;1.60;;;1.50;;
38302;SDS011;24103;42.454;27.400;2023-07-29T01:28:06;1.50;;;1.40;;
38302;SDS011;24103;42.454;27.400;2023-07-29T01:30:33;2.75;;;1.17;;
38302;SDS011;24103;42.454;27.400;2023-07-29T01:35:51;1.38;;;1.30;;
38302;SDS011;24103;42.454;27.400;2023-07-29T01:38:55;1.73;;;1.55;;
38302;SDS011;24103;42.454;27.400;2023-07-29T01:41:15;2.30;;;1.27;;
38302;SDS011;24103;42.454;27.400;2023-07-29T01:43:43;1.30;;;1.20;;
38302;SDS011;24103;42.454;27.400;2023-07-29T01:46:10;1.52;;;1.42;;
38302;SDS011;24103;42.454;27.400;2023-07-29T01:48:36;3.35;;;1.50;;
38302;SDS011;24103;42.454;27.400;2023-07-29T01:51:02;2.17;;;1.15;;
38302;SDS011;24103;42.454;27.400;2023-07-29T01:53:28;1.10;;;1.10;;
38302;SDS011;24103;42.454;27.400;2023-07-29T01:55:54;1.52;;;1.33;;
38302;SDS011;24103;42.454;27.400;2023-07-29T01:58:19;4.05;;;1.35;;
38302;SDS011;24103;42.454;27.400;2023-07-29T02:00:45;2.15;;;1.42;;
38302;SDS011;24103;42.454;27.400;2023-07-29T02:03:10;2.97;;;1.70;;
38302;SDS011;24103;42.454;27.400;2023-07-29T02:05:36;1.83;;;1.63;;
38302;SDS011;24103;42.454;27.400;2023-07-29T02:08:01;1.48;;;1.38;;
38302;SDS011;24103;42.454;27.400;2023-07-29T02:10:27;1.55;;;1.45;;
38302;SDS011;24103;42.454;27.400;2023-07-29T02:12:53;1.85;;;1.75;;
38302;SDS011;24103;42.454;27.400;2023-07-29T02:15:18;1.65;;;1.50;;
38302;SDS011;24103;42.454;27.400;2023-07-29T02:17:44;1.90;;;1.75;;
38302;SDS011;24103;42.454;27.400;2023-07-29T02:20:09;1.42;;;1.33;;
38302;SDS011;24103;42.454;27.400;2023-07-29T02:22:35;1.60;;;1.50;;
38302;SDS011;24103;42.454;27.400;2023-07-29T02:25:01;2.83;;;1.55;;
38302;SDS011;24103;42.454;27.400;2023-07-29T02:27:27;4.22;;;1.60;;
38302;SDS011;24103;42.454;27.400;2023-07-29T02:29:53;1.83;;;1.73;;
38302;SDS011;24103;42.454;27.400;2023-07-29T02:32:19;2.03;;;1.92;;
38302;SDS011;24103;42.454;27.400;2023-07-29T02:34:45;1.65;;;1.55;;
38302;SDS011;24103;42.454;27.400;2023-07-29T02:37:10;2.90;;;1.65;;
38302;SDS011;24103;42.454;27.400;2023-07-29T02:39:36;1.70;;;1.60;;
38302;SDS011;24103;42.454;27.400;2023-07-29T02:42:02;1.30;;;1.20;;
38302;SDS011;24103;42.454;27.400;2023-07-29T02:44:28;1.88;;;1.77;;
38302;SDS011;24103;42.454;27.400;2023-07-29T02:46:53;1.70;;;1.60;;
38302;SDS011;24103;42.454;27.400;2023-07-29T02:49:21;1.58;;;1.48;;
38302;SDS011;24103;42.454;27.400;2023-07-29T02:51:47;1.70;;;1.60;;
38302;SDS011;24103;42.454;27.400;2023-07-29T02:54:12;1.55;;;1.45;;
38302;SDS011;24103;42.454;27.400;2023-07-29T02:56:38;2.67;;;1.85;;
38302;SDS011;24103;42.454;27.400;2023-07-29T02:59:04;3.90;;;1.67;;
38302;SDS011;24103;42.454;27.400;2023-07-29T03:01:30;1.75;;;1.42;;
38302;SDS011;24103;42.454;27.400;2023-07-29T03:03:56;1.67;;;1.48;;
38302;SDS011;24103;42.454;27.400;2023-07-29T03:06:21;2.67;;;1.73;;
38302;SDS011;24103;42.454;27.400;2023-07-29T03:08:47;2.28;;;1.70;;
38302;SDS011;24103;42.454;27.400;2023-07-29T03:11:13;1.80;;;1.70;;
38302;SDS011;24103;42.454;27.400;2023-07-29T03:13:40;2.70;;;1.48;;
38302;SDS011;24103;42.454;27.400;2023-07-29T03:16:06;3.50;;;1.50;;
38302;SDS011;24103;42.454;27.400;2023-07-29T03:18:33;1.88;;;1.48;;
38302;SDS011;24103;42.454;27.400;2023-07-29T03:20:58;1.48;;;1.40;;
38302;SDS011;24103;42.454;27.400;2023-07-29T03:23:24;4.18;;;1.85;;
38302;SDS011;24103;42.454;27.400;2023-07-29T03:25:49;2.38;;;1.45;;
38302;SDS011;24103;42.454;27.400;2023-07-29T03:28:21;2.17;;;1.50;;
38302;SDS011;24103;42.454;27.400;2023-07-29T03:30:55;1.73;;;1.50;;
38302;SDS011;24103;42.454;27.400;2023-07-29T03:33:21;3.13;;;1.90;;
38302;SDS011;24103;42.454;27.400;2023-07-29T03:35:47;6.22;;;2.22;;
38302;SDS011;24103;42.454;27.400;2023-07-29T03:38:13;6.53;;;2.00;;
38302;SDS011;24103;42.454;27.400;2023-07-29T03:40:39;2.00;;;1.50;;
38302;SDS011;24103;42.454;27.400;2023-07-29T03:43:04;7.57;;;1.83;;
38302;SDS011;24103;42.454;27.400;2023-07-29T03:45:31;2.30;;;2.10;;
38302;SDS011;24103;42.454;27.400;2023-07-29T03:47:56;2.05;;;1.63;;
38302;SDS011;24103;42.454;27.400;2023-07-29T03:50:22;3.65;;;1.35;;
38302;SDS011;24103;42.454;27.400;2023-07-29T03:52:49;2.55;;;1.30;;
38302;SDS011;24103;42.454;27.400;2023-07-29T03:55:14;2.83;;;1.30;;
38302;SDS011;24103;42.454;27.400;2023-07-29T03:57:40;1.60;;;1.20;;
38302;SDS011;24103;42.454;27.400;2023-07-29T04:00:06;3.85;;;1.00;;
38302;SDS011;24103;42.454;27.400;2023-07-29T04:02:32;3.22;;;1.02;;
38302;SDS011;24103;42.454;27.400;2023-07-29T04:04:57;6.82;;;1.00;;
38302;SDS011;24103;42.454;27.400;2023-07-29T04:07:23;4.50;;;0.90;;
38302;SDS011;24103;42.454;27.400;2023-07-29T04:09:48;1.20;;;0.80;;
38302;SDS011;24103;42.454;27.400;2023-07-29T04:12:14;1.48;;;0.90;;
38302;SDS011;24103;42.454;27.400;2023-07-29T04:14:40;4.20;;;1.00;;
38302;SDS011;24103;42.454;27.400;2023-07-29T04:17:07;5.07;;;1.60;;
38302;SDS011;24103;42.454;27.400;2023-07-29T04:19:32;4.07;;;0.90;;
38302;SDS011;24103;42.454;27.400;2023-07-29T04:21:58;1.90;;;0.60;;
38302;SDS011;24103;42.454;27.400;2023-07-29T04:24:23;2.75;;;0.93;;
38302;SDS011;24103;42.454;27.400;2023-07-29T04:26:49;2.10;;;1.00;;
38302;SDS011;24103;42.454;27.400;2023-07-29T04:29:14;4.68;;;0.98;;
38302;SDS011;24103;42.454;27.400;2023-07-29T04:31:40;6.00;;;1.27;;
38302;SDS011;24103;42.454;27.400;2023-07-29T04:34:06;2.17;;;0.98;;
38302;SDS011;24103;42.454;27.400;2023-07-29T04:36:31;1.55;;;0.80;;
38302;SDS011;24103;42.454;27.400;2023-07-29T04:38:58;1.65;;;1.02;;
38302;SDS011;24103;42.454;27.400;2023-07-29T04:41:23;0.98;;;0.80;;
38302;SDS011;24103;42.454;27.400;2023-07-29T04:43:49;1.15;;;0.80;;
38302;SDS011;24103;42.454;27.400;2023-07-29T04:46:15;0.70;;;0.70;;
38302;SDS011;24103;42.454;27.400;2023-07-29T04:48:40;0.60;;;0.60;;
38302;SDS011;24103;42.454;27.400;2023-07-29T04:51:06;1.02;;;0.50;;
38302;SDS011;24103;42.454;27.400;2023-07-29T04:53:32;1.38;;;0.82;;
38302;SDS011;24103;42.454;27.400;2023-07-29T04:55:57;3.53;;;0.90;;
38302;SDS011;24103;42.454;27.400;2023-07-29T04:58:23;2.90;;;0.75;;
38302;SDS011;24103;42.454;27.400;2023-07-29T05:00:49;3.30;;;0.82;;
38302;SDS011;24103;42.454;27.400;2023-07-29T05:03:14;1.65;;;1.00;;
38302;SDS011;24103;42.454;27.400;2023-07-29T05:05:40;3.15;;;0.77;;
38302;SDS011;24103;42.454;27.400;2023-07-29T05:08:05;1.08;;;0.73;;
38302;SDS011;24103;42.454;27.400;2023-07-29T05:10:31;0.75;;;0.60;;
38302;SDS011;24103;42.454;27.400;2023-07-29T05:12:56;1.10;;;0.80;;
38302;SDS011;24103;42.454;27.400;2023-07-29T05:15:22;0.57;;;0.50;;
38302;SDS011;24103;42.454;27.400;2023-07-29T05:17:47;1.23;;;0.70;;
38302;SDS011;24103;42.454;27.400;2023-07-29T05:20:13;2.25;;;0.98;;
38302;SDS011;24103;42.454;27.400;2023-07-29T05:22:38;3.28;;;0.70;;
38302;SDS011;24103;42.454;27.400;2023-07-29T05:25:04;2.85;;;0.60;;
38302;SDS011;24103;42.454;27.400;2023-07-29T05:27:30;1.25;;;0.70;;
38302;SDS011;24103;42.454;27.400;2023-07-29T05:29:55;2.63;;;1.10;;
38302;SDS011;24103;42.454;27.400;2023-07-29T05:32:21;1.15;;;0.65;;
38302;SDS011;24103;42.454;27.400;2023-07-29T05:34:46;1.08;;;0.70;;
38302;SDS011;24103;42.454;27.400;2023-07-29T05:37:12;3.08;;;0.80;;
38302;SDS011;24103;42.454;27.400;2023-07-29T05:39:37;1.40;;;1.08;;
38302;SDS011;24103;42.454;27.400;2023-07-29T05:42:03;1.42;;;0.98;;
38302;SDS011;24103;42.454;27.400;2023-07-29T05:44:28;1.05;;;0.95;;
38302;SDS011;24103;42.454;27.400;2023-07-29T05:46:57;0.77;;;0.60;;
38302;SDS011;24103;42.454;27.400;2023-07-29T05:49:23;2.60;;;0.80;;
38302;SDS011;24103;42.454;27.400;2023-07-29T05:51:48;1.67;;;0.85;;
38302;SDS011;24103;42.454;27.400;2023-07-29T05:54:17;1.45;;;0.47;;
38302;SDS011;24103;42.454;27.400;2023-07-29T05:56:43;3.40;;;0.70;;
38302;SDS011;24103;42.454;27.400;2023-07-29T05:59:08;2.30;;;0.90;;
38302;SDS011;24103;42.454;27.400;2023-07-29T06:01:33;0.43;;;0.43;;
38302;SDS011;24103;42.454;27.400;2023-07-29T06:04:00;1.30;;;0.52;;
38302;SDS011;24103;42.454;27.400;2023-07-29T06:06:25;3.15;;;0.70;;
38302;SDS011;24103;42.454;27.400;2023-07-29T06:08:51;2.40;;;0.60;;
38302;SDS011;24103;42.454;27.400;2023-07-29T06:11:16;1.95;;;0.60;;
38302;SDS011;24103;42.454;27.400;2023-07-29T06:13:42;2.35;;;1.00;;
38302;SDS011;24103;42.454;27.400;2023-07-29T06:16:07;0.55;;;0.40;;
38302;SDS011;24103;42.454;27.400;2023-07-29T06:18:33;0.90;;;0.50;;
38302;SDS011;24103;42.454;27.400;2023-07-29T06:20:58;2.45;;;0.80;;
38302;SDS011;24103;42.454;27.400;2023-07-29T06:23:24;1.33;;;0.68;;
38302;SDS011;24103;42.454;27.400;2023-07-29T06:25:49;3.80;;;1.00;;
38302;SDS011;24103;42.454;27.400;2023-07-29T06:28:15;1.60;;;0.50;;
38302;SDS011;24103;42.454;27.400;2023-07-29T06:30:40;0.85;;;0.70;;
38302;SDS011;24103;42.454;27.400;2023-07-29T06:33:06;0.65;;;0.60;;
38302;SDS011;24103;42.454;27.400;2023-07-29T06:35:31;0.63;;;0.63;;
38302;SDS011;24103;42.454;27.400;2023-07-29T06:37:57;2.35;;;0.98;;
38302;SDS011;24103;42.454;27.400;2023-07-29T06:40:22;4.75;;;0.73;;
38302;SDS011;24103;42.454;27.400;2023-07-29T06:42:48;0.63;;;0.63;;
38302;SDS011;24103;42.454;27.400;2023-07-29T06:45:13;0.85;;;0.57;;
38302;SDS011;24103;42.454;27.400;2023-07-29T06:47:40;1.00;;;0.70;;
38302;SDS011;24103;42.454;27.400;2023-07-29T06:50:06;1.45;;;0.77;;
38302;SDS011;24103;42.454;27.400;2023-07-29T06:52:32;1.08;;;0.80;;
38302;SDS011;24103;42.454;27.400;2023-07-29T06:54:57;2.15;;;0.90;;
38302;SDS011;24103;42.454;27.400;2023-07-29T06:57:23;1.58;;;0.40;;
38302;SDS011;24103;42.454;27.400;2023-07-29T06:59:48;1.27;;;0.52;;
38302;SDS011;24103;42.454;27.400;2023-07-29T07:02:14;0.77;;;0.75;;
38302;SDS011;24103;42.454;27.400;2023-07-29T07:04:39;1.20;;;0.70;;
38302;SDS011;24103;42.454;27.400;2023-07-29T07:07:05;3.13;;;0.70;;
38302;SDS011;24103;42.454;27.400;2023-07-29T07:09:30;0.75;;;0.50;;
38302;SDS011;24103;42.454;27.400;2023-07-29T07:11:56;0.90;;;0.50;;
38302;SDS011;24103;42.454;27.400;2023-07-29T07:14:21;2.95;;;0.88;;
38302;SDS011;24103;42.454;27.400;2023-07-29T07:16:47;2.15;;;0.50;;
38302;SDS011;24103;42.454;27.400;2023-07-29T07:19:12;2.30;;;0.70;;
38302;SDS011;24103;42.454;27.400;2023-07-29T07:21:38;0.95;;;0.55;;
38302;SDS011;24103;42.454;27.400;2023-07-29T07:24:03;1.17;;;0.60;;
38302;SDS011;24103;42.454;27.400;2023-07-29T07:26:29;2.95;;;0.85;;
38302;SDS011;24103;42.454;27.400;2023-07-29T07:28:54;2.05;;;0.50;;
38302;SDS011;24103;42.454;27.400;2023-07-29T07:31:20;1.08;;;0.90;;
38302;SDS011;24103;42.454;27.400;2023-07-29T07:33:45;1.13;;;0.80;;
38302;SDS011;24103;42.454;27.400;2023-07-29T07:36:11;1.95;;;0.70;;
38302;SDS011;24103;42.454;27.400;2023-07-29T07:38:36;3.83;;;0.80;;
38302;SDS011;24103;42.454;27.400;2023-07-29T07:41:02;1.00;;;0.50;;
38302;SDS011;24103;42.454;27.400;2023-07-29T07:43:28;0.82;;;0.60;;
38302;SDS011;24103;42.454;27.400;2023-07-29T07:45:57;0.63;;;0.55;;
38302;SDS011;24103;42.454;27.400;2023-07-29T07:48:24;1.85;;;0.82;;
38302;SDS011;24103;42.454;27.400;2023-07-29T07:50:50;3.60;;;0.80;;
38302;SDS011;24103;42.454;27.400;2023-07-29T07:53:15;0.35;;;0.30;;
38302;SDS011;24103;42.454;27.400;2023-07-29T07:55:41;1.92;;;0.60;;
38302;SDS011;24103;42.454;27.400;2023-07-29T07:58:06;2.08;;;0.47;;
38302;SDS011;24103;42.454;27.400;2023-07-29T08:00:32;0.55;;;0.43;;
38302;SDS011;24103;42.454;27.400;2023-07-29T08:02:57;1.17;;;0.55;;
38302;SDS011;24103;42.454;27.400;2023-07-29T08:05:23;1.58;;;0.57;;
38302;SDS011;24103;42.454;27.400;2023-07-29T08:07:49;1.77;;;0.57;;
38302;SDS011;24103;42.454;27.400;2023-07-29T08:10:14;1.23;;;0.68;;
38302;SDS011;24103;42.454;27.400;2023-07-29T08:12:40;0.50;;;0.40;;
38302;SDS011;24103;42.454;27.400;2023-07-29T08:15:05;2.47;;;0.80;;
38302;SDS011;24103;42.454;27.400;2023-07-29T08:17:31;2.08;;;0.70;;
38302;SDS011;24103;42.454;27.400;2023-07-29T08:19:56;0.65;;;0.60;;
38302;SDS011;24103;42.454;27.400;2023-07-29T08:22:22;0.70;;;0.50;;
38302;SDS011;24103;42.454;27.400;2023-07-29T08:24:47;0.90;;;0.60;;
38302;SDS011;24103;42.454;27.400;2023-07-29T08:27:13;0.70;;;0.70;;
38302;SDS011;24103;42.454;27.400;2023-07-29T08:29:38;1.17;;;0.90;;
38302;SDS011;24103;42.454;27.400;2023-07-29T08:32:04;0.98;;;0.80;;
38302;SDS011;24103;42.454;27.400;2023-07-29T08:34:30;1.95;;;0.75;;
38302;SDS011;24103;42.454;27.400;2023-07-29T08:36:56;0.55;;;0.55;;
38302;SDS011;24103;42.454;27.400;2023-07-29T08:39:21;2.92;;;0.60;;
38302;SDS011;24103;42.454;27.400;2023-07-29T08:42:20;0.65;;;0.50;;
38302;SDS011;24103;42.454;27.400;2023-07-29T08:44:44;0.98;;;0.77;;
38302;SDS011;24103;42.454;27.400;2023-07-29T08:47:14;1.77;;;0.60;;
38302;SDS011;24103;42.454;27.400;2023-07-29T08:49:39;1.38;;;0.68;;
38302;SDS011;24103;42.454;27.400;2023-07-29T08:52:06;3.58;;;1.10;;
38302;SDS011;24103;42.454;27.400;2023-07-29T08:54:32;2.05;;;0.70;;
38302;SDS011;24103;42.454;27.400;2023-07-29T08:56:58;2.05;;;0.70;;
38302;SDS011;24103;42.454;27.400;2023-07-29T08:59:25;1.05;;;0.95;;
38302;SDS011;24103;42.454;27.400;2023-07-29T09:01:52;1.80;;;0.63;;
38302;SDS011;24103;42.454;27.400;2023-07-29T09:04:21;2.70;;;0.75;;
38302;SDS011;24103;42.454;27.400;2023-07-29T09:06:48;1.48;;;0.90;;
38302;SDS011;24103;42.454;27.400;2023-07-29T09:09:15;0.82;;;0.70;;
38302;SDS011;24103;42.454;27.400;2023-07-29T09:11:41;2.53;;;0.73;;
38302;SDS011;24103;42.454;27.400;2023-07-29T09:14:06;0.90;;;0.70;;
38302;SDS011;24103;42.454;27.400;2023-07-29T09:16:32;0.90;;;0.70;;
38302;SDS011;24103;42.454;27.400;2023-07-29T09:19:00;2.45;;;1.10;;
38302;SDS011;24103;42.454;27.400;2023-07-29T09:21:27;0.90;;;0.70;;
38302;SDS011;24103;42.454;27.400;2023-07-29T09:23:54;1.23;;;0.50;;
38302;SDS011;24103;42.454;27.400;2023-07-29T09:26:23;1.83;;;0.90;;
38302;SDS011;24103;42.454;27.400;2023-07-29T09:28:56;0.57;;;0.50;;
38302;SDS011;24103;42.454;27.400;2023-07-29T09:31:23;0.70;;;0.50;;
38302;SDS011;24103;42.454;27.400;2023-07-29T09:33:50;0.57;;;0.57;;
38302;SDS011;24103;42.454;27.400;2023-07-29T09:36:20;0.82;;;0.50;;
38302;SDS011;24103;42.454;27.400;2023-07-29T09:38:46;0.50;;;0.50;;
38302;SDS011;24103;42.454;27.400;2023-07-29T09:41:12;0.98;;;0.90;;
38302;SDS011;24103;42.454;27.400;2023-07-29T09:43:39;0.95;;;0.65;;
38302;SDS011;24103;42.454;27.400;2023-07-29T09:46:05;0.60;;;0.60;;
38302;SDS011;24103;42.454;27.400;2023-07-29T09:48:34;0.80;;;0.80;;
38302;SDS011;24103;42.454;27.400;2023-07-29T09:51:19;1.00;;;0.60;;
38302;SDS011;24103;42.454;27.400;2023-07-29T09:53:45;1.40;;;0.90;;
38302;SDS011;24103;42.454;27.400;2023-07-29T09:56:12;3.53;;;1.00;;
38302;SDS011;24103;42.454;27.400;2023-07-29T09:58:38;1.58;;;1.00;;
38302;SDS011;24103;42.454;27.400;2023-07-29T10:01:07;1.10;;;0.90;;
38302;SDS011;24103;42.454;27.400;2023-07-29T10:03:35;2.08;;;0.88;;
38302;SDS011;24103;42.454;27.400;2023-07-29T10:06:02;0.60;;;0.60;;
38302;SDS011;24103;42.454;27.400;2023-07-29T10:08:29;2.75;;;0.60;;
38302;SDS011;24103;42.454;27.400;2023-07-29T10:11:10;2.25;;;0.80;;
38302;SDS011;24103;42.454;27.400;2023-07-29T10:13:37;0.93;;;0.60;;
38302;SDS011;24103;42.454;27.400;2023-07-29T10:16:03;1.95;;;0.75;;
38302;SDS011;24103;42.454;27.400;2023-07-29T10:18:30;1.00;;;0.90;;
38302;SDS011;24103;42.454;27.400;2023-07-29T10:20:57;0.60;;;0.60;;
38302;SDS011;24103;42.454;27.400;2023-07-29T10:23:24;1.05;;;0.95;;
38302;SDS011;24103;42.454;27.400;2023-07-29T10:25:58;1.15;;;0.88;;
38302;SDS011;24103;42.454;27.400;2023-07-29T10:28:29;1.73;;;0.90;;
38302;SDS011;24103;42.454;27.400;2023-07-29T10:30:56;2.65;;;0.80;;
38302;SDS011;24103;42.454;27.400;2023-07-29T10:33:22;0.70;;;0.70;;
38302;SDS011;24103;42.454;27.400;2023-07-29T10:35:48;0.50;;;0.50;;
38302;SDS011;24103;42.454;27.400;2023-07-29T10:38:14;1.48;;;0.90;;
38302;SDS011;24103;42.454;27.400;2023-07-29T10:40:45;1.63;;;0.70;;
38302;SDS011;24103;42.454;27.400;2023-07-29T10:43:28;1.88;;;0.95;;
38302;SDS011;24103;42.454;27.400;2023-07-29T10:45:58;5.25;;;1.20;;
38302;SDS011;24103;42.454;27.400;2023-07-29T10:48:44;2.08;;;0.60;;
38302;SDS011;24103;42.454;27.400;2023-07-29T10:51:26;0.65;;;0.65;;
38302;SDS011;24103;42.454;27.400;2023-07-29T10:53:55;2.90;;;0.93;;
38302;SDS011;24103;42.454;27.400;2023-07-29T10:56:32;1.55;;;0.80;;
38302;SDS011;24103;42.454;27.400;2023-07-29T11:02:01;0.60;;;0.57;;
38302;SDS011;24103;42.454;27.400;2023-07-29T11:04:28;0.70;;;0.70;;
38302;SDS011;24103;42.454;27.400;2023-07-29T11:09:42;1.05;;;1.00;;
38302;SDS011;24103;42.454;27.400;2023-07-29T11:17:55;0.73;;;0.68;;
38302;SDS011;24103;42.454;27.400;2023-07-29T11:20:23;1.20;;;1.10;;
38302;SDS011;24103;42.454;27.400;2023-07-29T11:22:49;2.85;;;0.60;;
38302;SDS011;24103;42.454;27.400;2023-07-29T11:25:16;0.82;;;0.75;;
38302;SDS011;24103;42.454;27.400;2023-07-29T11:27:43;1.48;;;0.95;;
38302;SDS011;24103;42.454;27.400;2023-07-29T11:30:10;1.13;;;0.90;;
38302;SDS011;24103;42.454;27.400;2023-07-29T11:32:37;0.80;;;0.80;;
38302;SDS011;24103;42.454;27.400;2023-07-29T11:35:05;0.98;;;0.73;;
38302;SDS011;24103;42.454;27.400;2023-07-29T11:37:36;2.13;;;0.65;;
38302;SDS011;24103;42.454;27.400;2023-07-29T11:40:03;1.02;;;0.80;;
38302;SDS011;24103;42.454;27.400;2023-07-29T11:42:31;2.05;;;0.60;;
38302;SDS011;24103;42.454;27.400;2023-07-29T11:45:00;0.50;;;0.50;;
38302;SDS011;24103;42.454;27.400;2023-07-29T11:47:26;0.98;;;0.90;;
38302;SDS011;24103;42.454;27.400;2023-07-29T11:49:52;1.50;;;0.98;;
38302;SDS011;24103;42.454;27.400;2023-07-29T11:52:18;2.70;;;0.90;;
38302;SDS011;24103;42.454;27.400;2023-07-29T11:54:45;0.77;;;0.77;;
38302;SDS011;24103;42.454;27.400;2023-07-29T11:57:13;2.35;;;0.93;;
38302;SDS011;24103;42.454;27.400;2023-07-29T11:59:40;0.75;;;0.73;;
38302;SDS011;24103;42.454;27.400;2023-07-29T12:02:11;0.50;;;0.30;;
38302;SDS011;24103;42.454;27.400;2023-07-29T12:04:38;1.67;;;0.90;;
38302;SDS011;24103;42.454;27.400;2023-07-29T12:07:05;0.68;;;0.68;;
38302;SDS011;24103;42.454;27.400;2023-07-29T12:09:31;0.60;;;0.60;;
38302;SDS011;24103;42.454;27.400;2023-07-29T12:11:58;1.33;;;1.05;;
38302;SDS011;24103;42.454;27.400;2023-07-29T12:14:28;1.02;;;0.70;;
38302;SDS011;24103;42.454;27.400;2023-07-29T12:16:54;1.15;;;0.88;;
38302;SDS011;24103;42.454;27.400;2023-07-29T12:19:20;1.15;;;0.90;;
38302;SDS011;24103;42.454;27.400;2023-07-29T12:21:47;0.80;;;0.80;;
38302;SDS011;24103;42.454;27.400;2023-07-29T12:24:14;1.23;;;0.82;;
38302;SDS011;24103;42.454;27.400;2023-07-29T12:26:40;1.30;;;0.80;;
38302;SDS011;24103;42.454;27.400;2023-07-29T12:29:13;1.45;;;0.90;;
38302;SDS011;24103;42.454;27.400;2023-07-29T12:31:40;0.77;;;0.77;;
38302;SDS011;24103;42.454;27.400;2023-07-29T12:34:05;1.08;;;0.85;;
38302;SDS011;24103;42.454;27.400;2023-07-29T12:36:44;2.03;;;0.90;;
38302;SDS011;24103;42.454;27.400;2023-07-29T12:39:18;1.52;;;0.85;;
38302;SDS011;24103;42.454;27.400;2023-07-29T12:41:45;0.90;;;0.73;;
38302;SDS011;24103;42.454;27.400;2023-07-29T12:44:10;2.50;;;0.82;;
38302;SDS011;24103;42.454;27.400;2023-07-29T12:46:36;0.65;;;0.65;;
38302;SDS011;24103;42.454;27.400;2023-07-29T12:49:01;0.85;;;0.85;;
38302;SDS011;24103;42.454;27.400;2023-07-29T12:51:27;0.57;;;0.57;;
38302;SDS011;24103;42.454;27.400;2023-07-29T12:53:53;0.68;;;0.68;;
38302;SDS011;24103;42.454;27.400;2023-07-29T12:56:19;1.08;;;0.95;;
38302;SDS011;24103;42.454;27.400;2023-07-29T12:58:45;1.00;;;0.80;;
38302;SDS011;24103;42.454;27.400;2023-07-29T13:01:10;2.70;;;0.70;;
38302;SDS011;24103;42.454;27.400;2023-07-29T13:03:41;0.60;;;0.60;;
38302;SDS011;24103;42.454;27.400;2023-07-29T13:06:07;1.30;;;0.68;;
38302;SDS011;24103;42.454;27.400;2023-07-29T13:08:33;1.40;;;0.98;;
38302;SDS011;24103;42.454;27.400;2023-07-29T13:10:58;2.50;;;1.23;;
38302;SDS011;24103;42.454;27.400;2023-07-29T13:13:24;0.80;;;0.77;;
38302;SDS011;24103;42.454;27.400;2023-07-29T13:15:49;1.90;;;0.82;;
38302;SDS011;24103;42.454;27.400;2023-07-29T13:18:15;1.00;;;0.70;;
38302;SDS011;24103;42.454;27.400;2023-07-29T13:20:40;1.33;;;0.88;;
38302;SDS011;24103;42.454;27.400;2023-07-29T13:23:06;0.85;;;0.85;;
38302;SDS011;24103;42.454;27.400;2023-07-29T13:25:31;1.20;;;0.88;;
38302;SDS011;24103;42.454;27.400;2023-07-29T13:27:57;0.85;;;0.85;;
38302;SDS011;24103;42.454;27.400;2023-07-29T13:30:22;1.05;;;1.05;;
38302;SDS011;24103;42.454;27.400;2023-07-29T13:32:48;0.60;;;0.60;;
38302;SDS011;24103;42.454;27.400;2023-07-29T13:35:13;0.80;;;0.80;;
38302;SDS011;24103;42.454;27.400;2023-07-29T13:37:39;1.38;;;1.00;;
38302;SDS011;24103;42.454;27.400;2023-07-29T13:40:05;2.95;;;0.88;;
38302;SDS011;24103;42.454;27.400;2023-07-29T13:42:31;1.15;;;0.77;;
38302;SDS011;24103;42.454;27.400;2023-07-29T13:44:56;0.70;;;0.70;;
38302;SDS011;24103;42.454;27.400;2023-07-29T13:47:22;1.05;;;0.95;;
38302;SDS011;24103;42.454;27.400;2023-07-29T13:49:47;1.38;;;0.73;;
38302;SDS011;24103;42.454;27.400;2023-07-29T13:52:13;1.23;;;0.60;;
38302;SDS011;24103;42.454;27.400;2023-07-29T13:54:39;1.27;;;0.88;;
38302;SDS011;24103;42.454;27.400;2023-07-29T13:57:04;0.88;;;0.88;;
38302;SDS011;24103;42.454;27.400;2023-07-29T13:59:31;1.20;;;0.60;;
38302;SDS011;24103;42.454;27.400;2023-07-29T14:01:57;0.50;;;0.50;;
38302;SDS011;24103;42.454;27.400;2023-07-29T14:04:23;2.35;;;0.80;;
38302;SDS011;24103;42.454;27.400;2023-07-29T14:06:48;1.67;;;1.00;;
38302;SDS011;24103;42.454;27.400;2023-07-29T14:09:14;0.68;;;0.68;;
38302;SDS011;24103;42.454;27.400;2023-07-29T14:11:40;2.20;;;0.75;;
38302;SDS011;24103;42.454;27.400;2023-07-29T14:14:06;3.08;;;0.80;;
38302;SDS011;24103;42.454;27.400;2023-07-29T14:16:32;0.82;;;0.82;;
38302;SDS011;24103;42.454;27.400;2023-07-29T14:18:58;1.75;;;1.13;;
38302;SDS011;24103;42.454;27.400;2023-07-29T14:21:23;1.63;;;0.90;;
38302;SDS011;24103;42.454;27.400;2023-07-29T14:23:49;1.35;;;1.00;;
38302;SDS011;24103;42.454;27.400;2023-07-29T14:26:15;3.13;;;1.27;;
38302;SDS011;24103;42.454;27.400;2023-07-29T14:28:40;4.30;;;0.90;;
38302;SDS011;24103;42.454;27.400;2023-07-29T14:31:06;0.90;;;0.90;;
38302;SDS011;24103;42.454;27.400;2023-07-29T14:33:31;2.92;;;1.40;;
38302;SDS011;24103;42.454;27.400;2023-07-29T14:35:57;0.75;;;0.70;;
38302;SDS011;24103;42.454;27.400;2023-07-29T14:38:22;1.67;;;0.82;;
38302;SDS011;24103;42.454;27.400;2023-07-29T14:40:48;4.60;;;1.02;;
38302;SDS011;24103;42.454;27.400;2023-07-29T14:43:16;0.70;;;0.70;;
38302;SDS011;24103;42.454;27.400;2023-07-29T14:45:41;0.65;;;0.65;;
38302;SDS011;24103;42.454;27.400;2023-07-29T14:48:07;1.40;;;0.90;;
38302;SDS011;24103;42.454;27.400;2023-07-29T14:50:32;0.88;;;0.88;;